Time;durP1;ratioP1;P1;durP2;ratioP2;P2;SDS_P1;SDS_P2;PMS_P1;PMS_P2;Temp;Humidity;BMP_temperature;BMP_pressure;BME280_temperature;BME280_humidity;BME280_pressure;Samples;Min_cycle;Max_cycle;Signal;HPM_P1;HPM_P2
2022/07/31 00:00:26;;;;;;;1.42;1.33;;;13.10;99.90;;;;;;5024221;28;20152;-67
2022/07/31 00:02:53;;;;;;;1.67;1.58;;;13.00;99.90;;;;;;5025883;28;20087;-69
2022/07/31 00:05:20;;;;;;;1.10;0.90;;;13.00;99.90;;;;;;5022354;28;20068;-67
2022/07/31 00:07:47;;;;;;;1.27;0.63;;;13.00;99.90;;;;;;5021736;28;20073;-75
2022/07/31 00:10:14;;;;;;;1.05;0.77;;;12.90;99.90;;;;;;5022113;28;20049;-66
2022/07/31 00:12:41;;;;;;;0.70;0.60;;;12.90;99.90;;;;;;5018154;28;20120;-73
2022/07/31 00:15:09;;;;;;;1.25;0.70;;;12.80;99.90;;;;;;5020239;28;20042;-66
2022/07/31 00:17:40;;;;;;;2.85;1.15;;;12.80;99.90;;;;;;5002120;28;20121;-64
2022/07/31 00:20:12;;;;;;;1.13;1.02;;;12.80;99.90;;;;;;5014459;28;20200;-69
2022/07/31 00:22:43;;;;;;;0.80;0.80;;;12.70;99.90;;;;;;5021105;28;20140;-68
2022/07/31 00:25:12;;;;;;;0.80;0.70;;;12.70;99.90;;;;;;5022331;28;20041;-67
2022/07/31 00:27:40;;;;;;;1.35;1.25;;;12.70;99.90;;;;;;5020736;28;20152;-70
2022/07/31 00:30:08;;;;;;;1.27;0.90;;;12.60;99.90;;;;;;5003440;28;20123;-64
2022/07/31 00:32:35;;;;;;;0.77;0.60;;;12.60;99.90;;;;;;5020780;28;20085;-72
2022/07/31 00:35:02;;;;;;;0.80;0.80;;;12.60;99.90;;;;;;5024497;28;20045;-66
2022/07/31 00:37:29;;;;;;;1.05;0.95;;;12.60;99.90;;;;;;5019667;28;20073;-67
2022/07/31 00:39:57;;;;;;;0.88;0.77;;;12.50;99.90;;;;;;5008692;28;20053;-72
2022/07/31 00:42:25;;;;;;;0.77;0.70;;;12.50;99.90;;;;;;5005191;28;20831;-69
2022/07/31 00:44:52;;;;;;;0.73;0.63;;;12.50;99.90;;;;;;5019503;28;20037;-64
2022/07/31 00:47:19;;;;;;;4.90;0.85;;;12.50;99.90;;;;;;5020003;28;20446;-73
2022/07/31 00:49:51;;;;;;;1.67;0.60;;;12.50;99.90;;;;;;5021343;28;20053;-68
2022/07/31 00:52:19;;;;;;;1.05;0.60;;;12.40;99.90;;;;;;5025608;28;20053;-71
2022/07/31 00:54:46;;;;;;;0.57;0.52;;;12.40;99.90;;;;;;5026696;28;20049;-66
2022/07/31 00:57:14;;;;;;;1.15;1.05;;;12.40;99.90;;;;;;5024166;28;20059;-67
2022/07/31 00:59:41;;;;;;;1.05;0.90;;;12.40;99.90;;;;;;5010978;28;20045;-71
2022/07/31 01:02:08;;;;;;;0.85;0.85;;;12.30;99.90;;;;;;5006114;28;20049;-68
2022/07/31 01:04:35;;;;;;;1.13;1.02;;;12.30;99.90;;;;;;5026443;28;20045;-64
2022/07/31 01:07:08;;;;;;;1.05;0.68;;;12.30;99.90;;;;;;5004382;28;20164;-66
2022/07/31 01:09:35;;;;;;;2.00;0.73;;;12.30;99.90;;;;;;5021829;28;20041;-64
2022/07/31 01:12:17;;;;;;;0.73;0.73;;;12.30;99.90;;;;;;5010644;28;20133;-69
2022/07/31 01:14:51;;;;;;;0.60;0.60;;;12.30;99.90;;;;;;5032189;28;20333;-65
2022/07/31 01:17:21;;;;;;;0.68;0.50;;;12.20;99.90;;;;;;5008591;28;20050;-73
2022/07/31 01:19:50;;;;;;;0.82;0.82;;;12.20;99.90;;;;;;5011103;28;20139;-65
2022/07/31 01:22:37;;;;;;;1.00;0.80;;;12.20;99.90;;;;;;5003152;28;20045;-67
2022/07/31 01:25:14;;;;;;;1.33;1.10;;;12.20;99.90;;;;;;5017441;28;20589;-67
2022/07/31 01:28:19;;;;;;;1.73;0.60;;;12.20;99.90;;;;;;5013083;28;20141;-65
2022/07/31 01:30:48;;;;;;;;;;;12.20;99.90;;;;;;4997725;28;20498;-71
2022/07/31 01:33:37;;;;;;;1.55;1.05;;;12.20;99.90;;;;;;5021719;28;20026;-68
2022/07/31 01:36:15;;;;;;;1.17;0.70;;;12.20;99.90;;;;;;5007300;28;20144;-70
2022/07/31 01:38:48;;;;;;;1.48;0.88;;;12.10;99.90;;;;;;5006742;28;20045;-69
2022/07/31 01:41:20;;;;;;;4.15;0.98;;;12.10;99.90;;;;;;5001972;28;20136;-69
2022/07/31 01:43:49;;;;;;;1.40;0.73;;;12.10;99.90;;;;;;5024970;28;20099;-65
2022/07/31 01:46:18;;;;;;;2.67;0.98;;;12.10;99.90;;;;;;5007065;28;20087;-65
2022/07/31 01:48:47;;;;;;;0.73;0.60;;;12.10;99.90;;;;;;5003258;28;20041;-69
2022/07/31 01:51:17;;;;;;;0.65;0.65;;;12.00;99.90;;;;;;4992705;28;20096;-65
2022/07/31 01:53:46;;;;;;;0.60;0.60;;;12.00;99.90;;;;;;5002743;28;20121;-66
2022/07/31 01:56:17;;;;;;;1.17;0.90;;;12.00;99.90;;;;;;5019357;28;20057;-67
2022/07/31 01:58:46;;;;;;;1.85;0.80;;;12.00;99.90;;;;;;4998590;28;20144;-68
2022/07/31 02:01:33;;;;;;;0.60;0.60;;;12.00;99.90;;;;;;5012141;28;20090;-64
2022/07/31 02:04:01;;;;;;;0.65;0.60;;;12.00;99.90;;;;;;5022499;28;20038;-70
2022/07/31 02:06:30;;;;;;;1.05;0.75;;;11.90;99.90;;;;;;5001904;28;20049;-64
2022/07/31 02:08:59;;;;;;;1.05;0.60;;;11.90;99.90;;;;;;5014016;28;20164;-71
2022/07/31 02:11:27;;;;;;;0.77;0.70;;;11.90;99.90;;;;;;5004488;28;20049;-68
2022/07/31 02:13:56;;;;;;;2.28;1.00;;;11.90;99.90;;;;;;4995774;28;20042;-64
2022/07/31 02:16:25;;;;;;;0.60;0.60;;;11.90;99.90;;;;;;5002275;28;20794;-65
2022/07/31 02:19:03;;;;;;;0.75;0.70;;;11.90;99.90;;;;;;4987117;28;20136;-69
2022/07/31 02:21:30;;;;;;;0.60;0.60;;;11.90;99.90;;;;;;5021883;28;20080;-65
2022/07/31 02:23:57;;;;;;;0.95;0.90;;;11.90;99.90;;;;;;5002149;28;20057;-64
2022/07/31 02:26:26;;;;;;;0.68;0.68;;;11.90;99.90;;;;;;5004264;28;20041;-64
2022/07/31 02:28:54;;;;;;;2.80;0.90;;;11.90;99.90;;;;;;5002478;28;20117;-74
2022/07/31 02:31:24;;;;;;;0.90;0.70;;;12.00;99.90;;;;;;5015319;28;20053;-72
2022/07/31 02:33:53;;;;;;;1.52;1.42;;;12.00;99.90;;;;;;5005383;28;20140;-65
2022/07/31 02:36:21;;;;;;;1.00;0.90;;;12.00;99.90;;;;;;5020502;28;20674;-69
2022/07/31 02:38:50;;;;;;;3.72;1.40;;;12.00;99.90;;;;;;5019144;28;20042;-68
2022/07/31 02:41:18;;;;;;;1.17;0.95;;;12.00;99.90;;;;;;5028487;28;20049;-70
2022/07/31 02:43:46;;;;;;;1.40;1.13;;;12.00;99.90;;;;;;5008052;28;20072;-64
2022/07/31 02:46:19;;;;;;;2.78;1.08;;;12.00;99.90;;;;;;5003195;28;20049;-68
2022/07/31 02:48:48;;;;;;;1.10;1.00;;;11.90;99.90;;;;;;5023476;28;20037;-65
2022/07/31 02:51:17;;;;;;;1.33;0.90;;;11.90;99.90;;;;;;5004647;28;20044;-64
2022/07/31 02:53:45;;;;;;;1.10;1.00;;;11.90;99.90;;;;;;4999339;28;20058;-70
2022/07/31 02:56:14;;;;;;;0.82;0.82;;;11.90;99.90;;;;;;5008458;28;20160;-64
2022/07/31 02:58:41;;;;;;;1.38;0.98;;;11.90;99.90;;;;;;4999771;28;20149;-68
2022/07/31 03:01:17;;;;;;;2.45;2.25;;;11.80;99.90;;;;;;5019279;28;20056;-68
2022/07/31 03:03:45;;;;;;;1.50;1.40;;;11.80;99.90;;;;;;5021220;28;20297;-65
2022/07/31 03:06:12;;;;;;;1.63;1.17;;;11.90;99.90;;;;;;5018086;28;20096;-68
2022/07/31 03:08:39;;;;;;;0.85;0.63;;;11.80;99.90;;;;;;5012671;28;20139;-69
2022/07/31 03:11:06;;;;;;;1.02;0.93;;;11.90;99.90;;;;;;4985435;28;20393;-66
2022/07/31 03:13:35;;;;;;;0.85;0.85;;;11.80;99.90;;;;;;5021596;28;20096;-66
2022/07/31 03:16:06;;;;;;;0.70;0.70;;;11.90;99.90;;;;;;5001105;28;20096;-68
2022/07/31 03:18:34;;;;;;;1.77;1.67;;;11.90;99.90;;;;;;5025283;28;20126;-64
2022/07/31 03:21:01;;;;;;;3.83;1.00;;;11.90;99.90;;;;;;5025692;28;20041;-70
2022/07/31 03:23:35;;;;;;;1.60;1.17;;;11.90;99.90;;;;;;5020527;28;20042;-66
2022/07/31 03:26:15;;;;;;;2.70;0.90;;;11.90;99.90;;;;;;5005106;28;20053;-65
2022/07/31 03:28:42;;;;;;;1.00;0.93;;;11.90;99.90;;;;;;5023078;28;20060;-69
2022/07/31 03:31:09;;;;;;;1.42;1.27;;;11.90;99.90;;;;;;5020902;28;20037;-70
2022/07/31 03:33:36;;;;;;;1.90;0.95;;;11.90;99.90;;;;;;5021655;28;20388;-67
2022/07/31 03:36:04;;;;;;;1.50;1.25;;;11.90;99.90;;;;;;4998827;28;20053;-70
2022/07/31 03:38:32;;;;;;;0.88;0.80;;;12.00;99.90;;;;;;5003098;28;20041;-64
2022/07/31 03:41:14;;;;;;;1.15;1.05;;;12.00;99.90;;;;;;5003423;28;20116;-66
2022/07/31 03:43:42;;;;;;;1.25;1.15;;;12.00;99.90;;;;;;5003952;28;20053;-67
2022/07/31 03:46:21;;;;;;;1.00;0.90;;;12.00;99.90;;;;;;4994008;28;20056;-69
2022/07/31 03:48:50;;;;;;;0.75;0.75;;;12.10;99.90;;;;;;5001860;28;20121;-70
2022/07/31 03:51:19;;;;;;;1.25;1.02;;;12.10;99.90;;;;;;5003731;28;20069;-72
2022/07/31 03:53:46;;;;;;;0.70;0.70;;;12.20;99.90;;;;;;5004023;28;20734;-63
2022/07/31 03:56:34;;;;;;;1.02;0.85;;;12.30;99.90;;;;;;5018445;28;20061;-70
2022/07/31 03:59:02;;;;;;;1.52;0.77;;;12.30;99.90;;;;;;5017315;28;20041;-65
2022/07/31 04:01:29;;;;;;;1.10;1.00;;;12.40;99.90;;;;;;4999646;28;20124;-72
2022/07/31 04:04:24;;;;;;;0.80;0.80;;;12.40;99.90;;;;;;5004057;28;20045;-67
2022/07/31 04:07:09;;;;;;;0.95;0.70;;;12.50;99.90;;;;;;5013088;28;20057;-69
2022/07/31 04:09:37;;;;;;;0.80;0.80;;;12.50;99.90;;;;;;5028799;28;20044;-64
2022/07/31 04:12:05;;;;;;;0.80;0.80;;;12.50;99.90;;;;;;5000573;28;20469;-71
2022/07/31 04:14:32;;;;;;;0.68;0.68;;;12.60;99.90;;;;;;5019446;28;20033;-69
2022/07/31 04:16:59;;;;;;;1.60;0.90;;;12.70;99.90;;;;;;5000553;28;20053;-66
2022/07/31 04:19:29;;;;;;;2.60;1.63;;;12.80;99.90;;;;;;4999653;28;20054;-68
2022/07/31 04:21:57;;;;;;;1.10;0.85;;;12.90;99.90;;;;;;5007281;28;20108;-71
2022/07/31 04:24:24;;;;;;;1.15;1.05;;;12.90;99.90;;;;;;5004187;28;20041;-68
2022/07/31 04:27:07;;;;;;;1.08;0.98;;;12.90;99.90;;;;;;5015049;28;20045;-68
2022/07/31 04:29:43;;;;;;;0.85;0.85;;;13.10;99.90;;;;;;5000766;28;20166;-65
2022/07/31 04:32:11;;;;;;;2.75;1.55;;;13.10;99.90;;;;;;5003403;28;20115;-65
2022/07/31 04:34:44;;;;;;;1.83;0.85;;;13.20;99.90;;;;;;5005390;28;20064;-69
2022/07/31 04:37:11;;;;;;;1.08;0.82;;;13.20;99.90;;;;;;5002755;28;20041;-70
2022/07/31 04:39:38;;;;;;;1.08;0.93;;;13.30;99.90;;;;;;5033504;28;20069;-73
2022/07/31 04:42:06;;;;;;;2.90;0.65;;;13.30;99.90;;;;;;5013099;28;20040;-69
2022/07/31 04:44:37;;;;;;;1.17;1.08;;;13.40;99.90;;;;;;5008492;28;20052;-64
2022/07/31 04:47:06;;;;;;;1.45;1.20;;;13.50;99.90;;;;;;5004978;28;20154;-68
2022/07/31 04:49:37;;;;;;;1.17;0.70;;;13.50;99.90;;;;;;5008835;28;20497;-68
2022/07/31 04:52:05;;;;;;;0.57;0.57;;;13.60;99.90;;;;;;5008447;28;20045;-69
2022/07/31 04:54:32;;;;;;;1.40;0.93;;;13.70;99.90;;;;;;5006250;28;20157;-64
2022/07/31 04:56:59;;;;;;;1.38;0.80;;;13.80;99.90;;;;;;5020087;28;20153;-70
2022/07/31 04:59:27;;;;;;;2.70;0.90;;;13.90;99.90;;;;;;5002052;28;20121;-71
2022/07/31 05:02:14;;;;;;;0.65;0.65;;;14.00;99.90;;;;;;5016884;28;20464;-69
2022/07/31 05:04:40;;;;;;;1.08;0.98;;;14.10;99.90;;;;;;5021920;28;20119;-68
2022/07/31 05:07:08;;;;;;;0.52;0.50;;;14.30;99.90;;;;;;5007245;28;20140;-66
2022/07/31 05:09:35;;;;;;;1.10;0.57;;;14.40;99.90;;;;;;5007585;28;20483;-66
2022/07/31 05:12:04;;;;;;;0.70;0.70;;;14.60;99.90;;;;;;5019434;28;20053;-67
2022/07/31 05:14:32;;;;;;;0.77;0.77;;;14.70;99.90;;;;;;5008721;28;20049;-67
2022/07/31 05:16:59;;;;;;;1.58;0.75;;;14.90;99.90;;;;;;4997077;28;20049;-65
2022/07/31 05:19:40;;;;;;;;;;;15.00;99.90;;;;;;5000563;28;20053;-68
2022/07/31 05:22:21;;;;;;;0.68;0.68;;;15.20;99.90;;;;;;5006781;28;20463;-69
2022/07/31 05:25:07;;;;;;;0.68;0.63;;;15.40;99.90;;;;;;5035071;28;20056;-64
2022/07/31 05:27:34;;;;;;;0.77;0.77;;;15.40;99.90;;;;;;5024148;28;20050;-67
2022/07/31 05:30:07;;;;;;;0.43;0.43;;;15.50;99.90;;;;;;5019877;28;20060;-71
2022/07/31 05:32:35;;;;;;;1.20;0.75;;;15.60;99.90;;;;;;5004471;28;20132;-63
2022/07/31 05:35:02;;;;;;;2.30;0.70;;;15.70;99.90;;;;;;5024631;28;20076;-68
2022/07/31 05:37:31;;;;;;;0.43;0.43;;;16.00;99.90;;;;;;5004500;28;20034;-71
2022/07/31 05:39:58;;;;;;;1.50;0.63;;;16.00;99.90;;;;;;5012702;28;20037;-68
2022/07/31 05:42:44;;;;;;;1.95;0.55;;;16.00;99.90;;;;;;5018115;28;20142;-71
2022/07/31 05:45:29;;;;;;;0.68;0.47;;;16.20;99.90;;;;;;5021502;28;20506;-77
2022/07/31 05:47:56;;;;;;;0.70;0.60;;;16.30;99.90;;;;;;5011553;28;20108;-68
2022/07/31 05:50:23;;;;;;;0.80;0.50;;;16.40;99.90;;;;;;5007729;28;21004;-65
2022/07/31 05:52:50;;;;;;;0.60;0.60;;;16.50;99.90;;;;;;5026930;28;20103;-68
2022/07/31 05:55:46;;;;;;;0.80;0.80;;;16.50;99.90;;;;;;4980497;28;20077;-65
2022/07/31 05:58:39;;;;;;;0.90;0.90;;;16.60;99.90;;;;;;5020224;28;20517;-68
2022/07/31 06:01:05;;;;;;;0.38;0.38;;;16.60;99.90;;;;;;5003402;28;20087;-65
2022/07/31 06:03:34;;;;;;;2.00;0.70;;;16.70;99.90;;;;;;5008407;28;20045;-64
2022/07/31 06:06:20;;;;;;;0.38;0.38;;;16.80;99.90;;;;;;5005958;28;20038;-66
2022/07/31 06:08:48;;;;;;;1.25;1.20;;;16.90;99.90;;;;;;5002034;28;20037;-64
2022/07/31 06:11:15;;;;;;;0.82;0.55;;;16.80;99.90;;;;;;5021461;28;20140;-64
2022/07/31 06:13:42;;;;;;;0.45;0.40;;;17.00;99.90;;;;;;5023546;28;20072;-67
2022/07/31 06:16:28;;;;;;;0.55;0.55;;;17.10;99.90;;;;;;5015652;28;20464;-69
2022/07/31 06:18:54;;;;;;;1.92;0.93;;;17.20;99.90;;;;;;5008856;28;20122;-67
2022/07/31 06:21:21;;;;;;;0.93;0.52;;;17.30;99.90;;;;;;5004130;28;20108;-65
2022/07/31 06:23:53;;;;;;;0.40;0.40;;;17.40;99.90;;;;;;5021758;28;20046;-65
2022/07/31 06:26:26;;;;;;;2.05;0.40;;;17.50;99.90;;;;;;5004981;28;20140;-65
2022/07/31 06:28:53;;;;;;;0.73;0.73;;;17.70;99.90;;;;;;5008424;28;20079;-69
2022/07/31 06:31:21;;;;;;;0.50;0.50;;;17.80;99.90;;;;;;5009608;28;20060;-67
2022/07/31 06:33:52;;;;;;;0.50;0.50;;;17.90;99.90;;;;;;5006608;28;20048;-66
2022/07/31 06:36:23;;;;;;;1.08;0.60;;;18.00;99.90;;;;;;4996808;28;20680;-73
2022/07/31 06:38:57;;;;;;;0.65;0.50;;;18.10;99.90;;;;;;4996774;28;20068;-64
2022/07/31 06:44:28;;;;;;;0.80;0.55;;;18.20;99.90;;;;;;5025416;28;20045;-65
2022/07/31 06:47:15;;;;;;;1.83;0.40;;;18.30;99.90;;;;;;5021746;28;20056;-66
2022/07/31 06:50:02;;;;;;;2.22;0.50;;;18.40;99.90;;;;;;5023072;28;20052;-72
2022/07/31 06:52:34;;;;;;;1.05;0.80;;;18.50;99.90;;;;;;5006965;28;20048;-69
2022/07/31 06:55:02;;;;;;;0.35;0.35;;;18.50;99.90;;;;;;5000803;28;20583;-66
2022/07/31 06:57:29;;;;;;;0.30;0.30;;;18.50;99.90;;;;;;4998044;28;20067;-68
2022/07/31 06:59:56;;;;;;;0.50;0.50;;;18.60;99.90;;;;;;4998411;28;20057;-66
2022/07/31 07:02:24;;;;;;;0.63;0.55;;;18.60;99.90;;;;;;5006190;28;20041;-65
2022/07/31 07:04:53;;;;;;;0.75;0.45;;;18.70;99.90;;;;;;5004526;28;20053;-74
2022/07/31 07:07:34;;;;;;;0.77;0.63;;;18.60;99.90;;;;;;4997532;28;20058;-68
2022/07/31 07:10:03;;;;;;;1.40;1.30;;;18.60;99.90;;;;;;5007284;28;20041;-68
2022/07/31 07:12:56;;;;;;;0.73;0.60;;;18.70;99.90;;;;;;4994876;28;20050;-65
2022/07/31 07:15:24;;;;;;;0.95;0.55;;;18.70;99.90;;;;;;5003472;28;20053;-69
2022/07/31 07:17:51;;;;;;;1.48;0.60;;;18.60;99.90;;;;;;5007740;28;20049;-66
2022/07/31 07:20:26;;;;;;;0.50;0.50;;;18.60;99.90;;;;;;4989266;28;20053;-67
2022/07/31 07:22:54;;;;;;;0.93;0.40;;;18.60;99.90;;;;;;5001669;28;20029;-69
2022/07/31 07:25:34;;;;;;;0.50;0.47;;;18.60;99.90;;;;;;5004460;28;20049;-66
2022/07/31 07:28:01;;;;;;;2.33;0.70;;;18.70;99.90;;;;;;5004341;28;20037;-66
2022/07/31 07:30:28;;;;;;;0.60;0.50;;;18.70;99.90;;;;;;5006368;28;20059;-65
2022/07/31 07:32:58;;;;;;;;;;;18.80;99.90;;;;;;4999275;28;20041;-65
2022/07/31 07:35:26;;;;;;;1.52;0.32;;;18.70;99.90;;;;;;5009821;28;20391;-67
2022/07/31 07:38:02;;;;;;;0.30;0.30;;;18.70;99.90;;;;;;5002574;28;20038;-68
2022/07/31 07:40:30;;;;;;;0.60;0.57;;;18.60;99.90;;;;;;5017526;28;20041;-70
2022/07/31 07:42:57;;;;;;;0.50;0.40;;;18.60;99.90;;;;;;5017839;28;20084;-65
2022/07/31 07:45:29;;;;;;;0.43;0.43;;;18.70;99.90;;;;;;5002309;28;20157;-67
2022/07/31 07:47:57;;;;;;;0.60;0.47;;;18.80;99.90;;;;;;5011461;28;20423;-65
2022/07/31 07:51:08;;;;;;;0.40;0.40;;;18.80;99.90;;;;;;4938355;28;20047;-65
2022/07/31 07:54:01;;;;;;;1.25;0.50;;;18.90;99.90;;;;;;5006514;28;20038;-69
2022/07/31 07:56:51;;;;;;;1.10;0.80;;;19.00;99.90;;;;;;4985169;28;20049;-65
2022/07/31 07:59:24;;;;;;;0.82;0.60;;;18.80;99.90;;;;;;5022595;28;20137;-69
2022/07/31 08:02:11;;;;;;;0.75;0.70;;;18.90;99.90;;;;;;5017080;28;20100;-67
2022/07/31 08:04:38;;;;;;;0.73;0.40;;;18.90;99.90;;;;;;5005163;28;20049;-70
2022/07/31 08:07:05;;;;;;;1.60;0.35;;;19.00;99.90;;;;;;5004139;28;20547;-66
2022/07/31 08:09:36;;;;;;;0.57;0.57;;;19.00;99.90;;;;;;5016608;28;20104;-64
2022/07/31 08:12:04;;;;;;;0.50;0.35;;;19.00;99.90;;;;;;5020993;28;20478;-72
2022/07/31 08:14:50;;;;;;;0.65;0.65;;;19.00;99.90;;;;;;5014500;28;20156;-66
2022/07/31 08:17:36;;;;;;;0.77;0.70;;;19.10;99.90;;;;;;5038228;28;20064;-66
2022/07/31 08:20:05;;;;;;;1.75;0.57;;;19.10;99.90;;;;;;5029081;28;20106;-69
2022/07/31 08:22:32;;;;;;;0.75;0.75;;;19.20;99.90;;;;;;5046604;28;20041;-71
2022/07/31 08:24:59;;;;;;;1.27;0.57;;;19.10;99.90;;;;;;5019864;28;20060;-67
2022/07/31 08:27:32;;;;;;;0.70;0.60;;;19.00;99.90;;;;;;5019598;28;20053;-66
2022/07/31 08:30:07;;;;;;;0.80;0.52;;;19.10;99.90;;;;;;5018882;28;20045;-65
2022/07/31 08:32:34;;;;;;;3.85;0.52;;;19.10;99.90;;;;;;5031372;28;20571;-66
2022/07/31 08:35:05;;;;;;;0.68;0.47;;;19.20;99.90;;;;;;5036283;28;20388;-74
2022/07/31 08:37:32;;;;;;;0.45;0.45;;;19.30;99.90;;;;;;5037089;28;20717;-65
2022/07/31 08:40:21;;;;;;;0.55;0.52;;;19.50;99.90;;;;;;5017315;28;20037;-67
2022/07/31 08:42:48;;;;;;;1.83;0.73;;;19.60;99.90;;;;;;5037287;28;20131;-65
2022/07/31 08:45:15;;;;;;;0.30;0.30;;;19.50;99.90;;;;;;5020578;28;20043;-66
2022/07/31 08:47:49;;;;;;;0.40;0.40;;;19.50;99.90;;;;;;5018518;28;20747;-67
2022/07/31 08:50:25;;;;;;;0.50;0.50;;;19.60;99.90;;;;;;5034584;28;20114;-73
2022/07/31 08:52:55;;;;;;;0.40;0.40;;;19.80;99.90;;;;;;5023507;28;20332;-65
2022/07/31 08:55:45;;;;;;;0.60;0.60;;;19.80;99.90;;;;;;5017006;28;20049;-67
2022/07/31 08:58:23;;;;;;;1.05;0.75;;;19.80;99.90;;;;;;5025989;28;20053;-68
2022/07/31 09:00:50;;;;;;;0.30;0.30;;;19.80;99.90;;;;;;5027303;28;20087;-65
2022/07/31 09:03:18;;;;;;;0.80;0.50;;;19.70;99.90;;;;;;5018927;28;20053;-67
2022/07/31 09:05:55;;;;;;;0.80;0.55;;;19.80;99.90;;;;;;5027587;28;20036;-67
2022/07/31 09:08:22;;;;;;;2.70;0.63;;;19.90;99.90;;;;;;5027593;28;20053;-65
2022/07/31 09:11:21;;;;;;;0.80;0.45;;;19.90;99.90;;;;;;5014657;28;20063;-73
2022/07/31 09:14:03;;;;;;;0.73;0.73;;;19.90;99.90;;;;;;5012516;28;20048;-74
2022/07/31 09:16:49;;;;;;;0.70;0.70;;;19.90;99.90;;;;;;5033473;28;20045;-70
2022/07/31 09:19:22;;;;;;;1.05;0.55;;;19.90;99.90;;;;;;5031559;28;20038;-66
2022/07/31 09:22:22;;;;;;;0.70;0.70;;;19.90;99.90;;;;;;5026357;28;20047;-65
2022/07/31 09:24:50;;;;;;;0.52;0.52;;;20.10;99.90;;;;;;5024569;28;20052;-71
2022/07/31 09:27:17;;;;;;;0.70;0.68;;;20.20;99.90;;;;;;5034631;28;20037;-65
2022/07/31 09:29:47;;;;;;;0.60;0.60;;;20.30;99.90;;;;;;5024347;28;20975;-69
2022/07/31 09:32:38;;;;;;;0.50;0.50;;;20.40;99.90;;;;;;5003496;28;20133;-66
2022/07/31 09:35:14;;;;;;;1.75;0.50;;;20.40;99.90;;;;;;5032894;28;20124;-68
2022/07/31 09:37:46;;;;;;;1.23;0.70;;;20.30;99.90;;;;;;5023760;28;20056;-67
2022/07/31 09:40:35;;;;;;;0.60;0.40;;;20.30;99.90;;;;;;5044077;28;20047;-64
2022/07/31 09:44:04;;;;;;;0.93;0.90;;;20.20;99.90;;;;;;5018389;28;20084;-64
2022/07/31 09:46:45;;;;;;;1.10;1.03;;;20.20;99.90;;;;;;5036794;28;20049;-71
2022/07/31 09:49:13;;;;;;;0.98;0.80;;;20.40;99.90;;;;;;5023731;28;20466;-65
2022/07/31 09:51:45;;;;;;;1.02;0.50;;;20.40;99.90;;;;;;5025227;28;20041;-69
2022/07/31 09:54:23;;;;;;;0.32;0.30;;;20.40;99.90;;;;;;5019874;28;20053;-66
2022/07/31 09:56:51;;;;;;;1.05;0.85;;;20.10;99.90;;;;;;5037406;28;20536;-65
2022/07/31 09:59:18;;;;;;;0.90;0.32;;;20.10;99.90;;;;;;5020258;28;20052;-65
2022/07/31 10:01:49;;;;;;;0.35;0.30;;;20.00;99.90;;;;;;5020004;28;20064;-65
2022/07/31 10:04:18;;;;;;;0.57;0.50;;;20.20;99.90;;;;;;5030436;28;20061;-65
2022/07/31 10:06:50;;;;;;;2.50;0.63;;;20.30;99.90;;;;;;5014607;28;20144;-65
2022/07/31 10:09:19;;;;;;;0.45;0.45;;;20.60;99.90;;;;;;5022370;28;20049;-65
2022/07/31 10:12:08;;;;;;;0.47;0.45;;;20.70;99.90;;;;;;5037828;28;20049;-68
2022/07/31 10:14:43;;;;;;;4.32;0.68;;;20.80;99.90;;;;;;5017228;28;20048;-66
2022/07/31 10:17:13;;;;;;;0.47;0.47;;;20.90;99.90;;;;;;5015688;28;20041;-65
2022/07/31 10:20:04;;;;;;;0.30;0.30;;;20.90;99.90;;;;;;5026106;28;20048;-65
2022/07/31 10:23:21;;;;;;;0.52;0.52;;;20.70;99.90;;;;;;4989717;28;20049;-65
2022/07/31 10:25:51;;;;;;;0.47;0.30;;;20.40;99.90;;;;;;5024078;28;20059;-66
2022/07/31 10:28:20;;;;;;;0.60;0.43;;;20.20;99.90;;;;;;5024316;28;20098;-66
2022/07/31 10:30:48;;;;;;;0.73;0.50;;;20.10;99.90;;;;;;5026050;28;20447;-69
2022/07/31 10:33:17;;;;;;;0.85;0.85;;;20.30;99.90;;;;;;5011370;28;20068;-65
2022/07/31 10:36:27;;;;;;;2.00;0.68;;;20.40;99.90;;;;;;5036686;28;20474;-72
2022/07/31 10:39:08;;;;;;;0.65;0.60;;;20.60;99.90;;;;;;5018575;28;20095;-66
2022/07/31 10:42:11;;;;;;;0.77;0.50;;;20.80;99.90;;;;;;5021926;28;20036;-67
2022/07/31 10:44:45;;;;;;;2.88;0.68;;;20.70;99.90;;;;;;5028306;28;20056;-66
2022/07/31 10:47:18;;;;;;;0.63;0.50;;;20.70;99.90;;;;;;5021047;28;20060;-64
2022/07/31 10:49:59;;;;;;;1.00;0.70;;;20.60;99.90;;;;;;5020715;28;20046;-66
2022/07/31 10:52:46;;;;;;;1.48;0.95;;;20.50;99.90;;;;;;5015738;28;20052;-71
2022/07/31 10:55:23;;;;;;;0.60;0.60;;;20.40;99.90;;;;;;5037207;28;20040;-69
2022/07/31 10:58:12;;;;;;;0.75;0.75;;;20.40;99.90;;;;;;5045164;28;20142;-67
2022/07/31 11:01:06;;;;;;;1.88;0.50;;;20.40;99.90;;;;;;5042087;28;20037;-65
2022/07/31 11:03:45;;;;;;;0.55;0.55;;;20.20;99.90;;;;;;5011914;28;20078;-69
2022/07/31 11:06:43;;;;;;;1.08;0.85;;;20.00;99.90;;;;;;5018720;28;20045;-65
2022/07/31 11:09:46;;;;;;;1.23;1.00;;;20.00;99.90;;;;;;4960376;28;20046;-67
2022/07/31 11:13:00;;;;;;;2.35;0.52;;;20.20;99.90;;;;;;4947021;28;20056;-72
2022/07/31 11:16:04;;;;;;;1.45;0.45;;;20.30;99.90;;;;;;4981702;28;20141;-69
2022/07/31 11:19:05;;;;;;;0.60;0.45;;;20.50;99.90;;;;;;5032661;28;20056;-67
2022/07/31 11:21:37;;;;;;;0.60;0.60;;;20.40;99.90;;;;;;5031564;28;20037;-67
2022/07/31 11:24:20;;;;;;;0.65;0.38;;;20.50;99.90;;;;;;5036778;28;20041;-68
2022/07/31 11:26:51;;;;;;;0.55;0.38;;;20.60;99.90;;;;;;5034852;28;20057;-69
2022/07/31 11:29:27;;;;;;;1.90;0.55;;;20.80;99.90;;;;;;5024888;28;20550;-65
2022/07/31 11:32:15;;;;;;;1.23;0.70;;;21.10;99.90;;;;;;5029621;28;20052;-69
2022/07/31 11:34:52;;;;;;;0.55;0.40;;;21.20;99.90;;;;;;5030876;28;20072;-66
2022/07/31 11:37:24;;;;;;;0.50;0.50;;;21.30;99.90;;;;;;5034490;28;20448;-70
2022/07/31 11:39:53;;;;;;;0.70;0.65;;;21.30;99.90;;;;;;5031944;28;20420;-65
2022/07/31 11:42:23;;;;;;;0.63;0.60;;;21.20;99.90;;;;;;5026910;28;20033;-64
2022/07/31 11:45:04;;;;;;;0.40;0.40;;;21.30;99.90;;;;;;5036676;28;20103;-68
2022/07/31 11:47:42;;;;;;;1.73;0.60;;;21.40;99.90;;;;;;5031666;28;20442;-66
2022/07/31 11:50:38;;;;;;;0.30;0.30;;;21.30;99.90;;;;;;5021964;28;20037;-65
2022/07/31 11:53:05;;;;;;;0.73;0.73;;;21.40;99.90;;;;;;5020540;28;20042;-68
2022/07/31 11:55:47;;;;;;;1.15;0.70;;;21.30;99.90;;;;;;5031354;28;20381;-65
2022/07/31 11:58:16;;;;;;;0.32;0.32;;;21.20;99.90;;;;;;5037503;28;20048;-66
2022/07/31 12:00:51;;;;;;;0.73;0.60;;;21.20;99.90;;;;;;5034769;28;20076;-65
2022/07/31 12:03:27;;;;;;;0.73;0.47;;;21.40;99.90;;;;;;5027574;28;20051;-70
2022/07/31 12:05:54;;;;;;;0.98;0.32;;;21.60;99.90;;;;;;5031222;28;20050;-65
2022/07/31 12:08:23;;;;;;;1.05;0.65;;;21.70;99.90;;;;;;5033492;28;20317;-65
2022/07/31 12:10:55;;;;;;;2.05;0.40;;;21.70;99.90;;;;;;5034584;28;20049;-68
2022/07/31 12:13:23;;;;;;;1.50;0.40;;;21.40;99.90;;;;;;5032104;28;20581;-64
2022/07/31 12:16:03;;;;;;;0.40;0.40;;;21.40;99.90;;;;;;5038400;28;20160;-70
2022/07/31 12:18:44;;;;;;;0.55;0.55;;;21.30;99.90;;;;;;5034732;28;20041;-65
2022/07/31 12:21:11;;;;;;;3.80;1.02;;;21.20;99.90;;;;;;5035135;28;20537;-70
2022/07/31 12:23:45;;;;;;;1.02;0.85;;;21.20;99.90;;;;;;5019821;28;20037;-65
2022/07/31 12:26:21;;;;;;;0.52;0.52;;;21.30;99.90;;;;;;5036952;28;20151;-66
2022/07/31 12:29:01;;;;;;;2.58;0.55;;;21.30;99.90;;;;;;5036482;28;20372;-66
2022/07/31 12:31:31;;;;;;;4.35;0.77;;;21.50;99.90;;;;;;5026731;28;20542;-66
2022/07/31 12:33:58;;;;;;;1.90;0.57;;;21.20;99.90;;;;;;5033636;28;20322;-66
2022/07/31 12:36:25;;;;;;;0.60;0.40;;;21.20;99.90;;;;;;5036861;28;20116;-67
2022/07/31 12:39:03;;;;;;;0.55;0.50;;;21.10;99.90;;;;;;5041274;28;20376;-65
2022/07/31 12:41:41;;;;;;;1.02;0.93;;;20.90;99.90;;;;;;5036395;28;20045;-67
2022/07/31 12:44:12;;;;;;;1.88;0.90;;;20.80;99.90;;;;;;5022370;28;20061;-66
2022/07/31 12:46:40;;;;;;;1.17;0.60;;;20.70;99.90;;;;;;5023151;28;20093;-66
2022/07/31 12:49:07;;;;;;;1.77;0.80;;;20.70;99.90;;;;;;5027809;28;20148;-69
2022/07/31 12:51:35;;;;;;;1.00;0.50;;;20.70;99.90;;;;;;5032367;28;20048;-73
2022/07/31 12:54:16;;;;;;;0.52;0.52;;;20.70;99.90;;;;;;5025257;28;20046;-65
2022/07/31 12:56:45;;;;;;;2.30;0.75;;;20.50;99.90;;;;;;5019835;28;20467;-69
2022/07/31 12:59:12;;;;;;;1.25;1.00;;;20.50;99.90;;;;;;5032204;28;20110;-67
2022/07/31 13:01:39;;;;;;;0.95;0.65;;;20.50;99.90;;;;;;5028284;28;20566;-69
2022/07/31 13:04:08;;;;;;;2.42;0.47;;;20.50;99.90;;;;;;5031222;28;20041;-67
2022/07/31 13:06:47;;;;;;;0.35;0.35;;;20.60;99.90;;;;;;5042315;28;20072;-69
2022/07/31 13:09:14;;;;;;;1.48;0.65;;;20.70;99.90;;;;;;5036596;28;20059;-69
2022/07/31 13:11:42;;;;;;;1.02;0.60;;;20.70;99.90;;;;;;5043655;28;20041;-69
2022/07/31 13:14:18;;;;;;;3.38;1.50;;;20.70;99.90;;;;;;5035305;28;20140;-65
2022/07/31 13:16:46;;;;;;;1.05;0.65;;;20.70;99.90;;;;;;5036103;28;20099;-66
2022/07/31 13:19:14;;;;;;;3.72;1.17;;;20.90;99.90;;;;;;5031886;28;20052;-66
2022/07/31 13:21:42;;;;;;;0.82;0.70;;;20.80;99.90;;;;;;5043224;28;20175;-66
2022/07/31 13:24:19;;;;;;;2.95;1.00;;;21.00;99.90;;;;;;5029628;28;20045;-71